Time;durP1;ratioP1;P1;durP2;ratioP2;P2;SDS_P1;SDS_P2;PMS_P1;PMS_P2;Temp;Humidity;BMP_temperature;BMP_pressure;BME280_temperature;BME280_humidity;BME280_pressure;Samples;Min_cycle;Max_cycle;Signal;HPM_P1;HPM_P2
2023/04/19 00:01:47;;;;;;;36.30;23.73;;;;;;;;;;759652;182;920153;-60
2023/04/19 00:04:13;;;;;;;36.97;24.77;;;;;;;;;;749394;186;878899;-61
2023/04/19 00:06:39;;;;;;;40.80;25.27;;;;;;;;;;750054;186;919093;-60
2023/04/19 00:09:06;;;;;;;37.07;25.17;;;;;;;;;;745526;187;919309;-61
2023/04/19 00:11:31;;;;;;;35.83;24.97;;;;;;;;;;739761;187;919420;-60
2023/04/19 00:13:56;;;;;;;34.70;25.20;;;;;;;;;;737547;191;960976;-60
2023/04/19 00:16:22;;;;;;;34.20;25.33;;;;;;;;;;738023;188;921046;-60
2023/04/19 00:18:48;;;;;;;38.73;26.83;;;;;;;;;;742795;188;818827;-60
2023/04/19 00:21:14;;;;;;;35.70;25.42;;;;;;;;;;742577;188;919914;-61
2023/04/19 00:23:40;;;;;;;39.77;24.90;;;;;;;;;;753716;186;919408;-60
2023/04/19 00:26:06;;;;;;;39.93;23.30;;;;;;;;;;763608;182;924221;-60
2023/04/19 00:28:32;;;;;;;38.40;25.20;;;;;;;;;;767423;182;630071;-61
2023/04/19 00:30:57;;;;;;;32.67;22.50;;;;;;;;;;768519;183;815024;-60
2023/04/19 00:33:23;;;;;;;27.73;21.40;;;;;;;;;;761790;182;914744;-60
2023/04/19 00:35:49;;;;;;;33.67;24.40;;;;;;;;;;762060;182;905760;-60
2023/04/19 00:38:15;;;;;;;33.00;23.17;;;;;;;;;;766771;183;920651;-61
2023/04/19 00:40:41;;;;;;;40.73;25.03;;;;;;;;;;761649;183;1018067;-60
2023/04/19 00:43:07;;;;;;;30.67;22.53;;;;;;;;;;764081;182;920397;-61
2023/04/19 00:45:32;;;;;;;35.77;23.97;;;;;;;;;;767124;182;904376;-61
2023/04/19 00:47:58;;;;;;;29.20;21.40;;;;;;;;;;763964;182;817166;-60
2023/04/19 00:50:25;;;;;;;32.77;22.47;;;;;;;;;;765955;181;917697;-61
2023/04/19 00:52:50;;;;;;;35.57;24.03;;;;;;;;;;766639;181;914163;-60
2023/04/19 00:55:16;;;;;;;34.63;23.30;;;;;;;;;;761448;182;919313;-60
2023/04/19 00:57:42;;;;;;;34.53;23.50;;;;;;;;;;764616;180;914698;-60
2023/04/19 01:00:08;;;;;;;36.97;24.00;;;;;;;;;;765989;181;919541;-60
2023/04/19 01:02:35;;;;;;;38.47;23.30;;;;;;;;;;772523;181;920092;-60
2023/04/19 01:05:00;;;;;;;38.20;24.13;;;;;;;;;;767339;181;931341;-61
2023/04/19 01:07:26;;;;;;;44.95;24.30;;;;;;;;;;752627;184;918722;-61
2023/04/19 01:09:52;;;;;;;35.33;24.70;;;;;;;;;;771577;182;915603;-60
2023/04/19 01:12:18;;;;;;;34.93;24.60;;;;;;;;;;764939;182;919840;-60
2023/04/19 01:14:44;;;;;;;37.07;24.30;;;;;;;;;;764417;183;917929;-60
2023/04/19 01:17:09;;;;;;;33.27;22.87;;;;;;;;;;764193;183;919541;-61
2023/04/19 01:19:35;;;;;;;37.33;24.60;;;;;;;;;;761384;184;914294;-60
2023/04/19 01:22:02;;;;;;;33.90;24.60;;;;;;;;;;766036;182;914539;-59
2023/04/19 01:24:27;;;;;;;33.70;22.67;;;;;;;;;;766612;182;918886;-61
2023/04/19 01:26:53;;;;;;;31.60;23.10;;;;;;;;;;770741;182;816947;-61
2023/04/19 01:29:20;;;;;;;35.90;24.17;;;;;;;;;;763645;181;817365;-60
2023/04/19 01:31:50;;;;;;;31.50;22.37;;;;;;;;;;763443;183;919433;-59
2023/04/19 01:34:10;;;;;;;29.93;22.90;;;;;;;;;;767061;184;919105;-60
2023/04/19 01:36:36;;;;;;;37.20;24.70;;;;;;;;;;759873;184;919921;-61
2023/04/19 01:39:02;;;;;;;35.87;24.53;;;;;;;;;;756598;184;917527;-59
2023/04/19 01:41:28;;;;;;;34.13;24.50;;;;;;;;;;759408;184;932541;-60
2023/04/19 01:43:54;;;;;;;32.90;21.40;;;;;;;;;;767082;181;919311;-60
2023/04/19 01:46:20;;;;;;;23.97;18.00;;;;;;;;;;770204;181;918506;-61
2023/04/19 01:48:45;;;;;;;28.03;21.03;;;;;;;;;;764700;183;922617;-62
2023/04/19 01:51:11;;;;;;;32.50;21.90;;;;;;;;;;768936;183;941762;-61
2023/04/19 01:53:37;;;;;;;29.53;20.33;;;;;;;;;;749594;184;919006;-60
2023/04/19 01:56:03;;;;;;;31.90;21.60;;;;;;;;;;760942;182;919820;-60
2023/04/19 01:58:29;;;;;;;34.93;22.00;;;;;;;;;;767893;183;920106;-60
2023/04/19 02:00:55;;;;;;;32.35;22.83;;;;;;;;;;765722;182;917064;-59
2023/04/19 02:03:21;;;;;;;27.33;19.73;;;;;;;;;;767492;182;923932;-60
2023/04/19 02:05:46;;;;;;;31.10;22.00;;;;;;;;;;772642;182;919125;-59
2023/04/19 02:08:12;;;;;;;29.93;20.60;;;;;;;;;;769948;181;914115;-60
2023/04/19 02:10:38;;;;;;;29.57;20.50;;;;;;;;;;765041;182;917935;-61
2023/04/19 02:13:04;;;;;;;29.00;22.03;;;;;;;;;;749165;187;917932;-61
2023/04/19 02:15:30;;;;;;;32.20;22.33;;;;;;;;;;765483;182;813405;-60
2023/04/19 02:17:56;;;;;;;31.30;23.17;;;;;;;;;;752886;182;914396;-61
2023/04/19 02:20:23;;;;;;;32.20;22.57;;;;;;;;;;752572;184;915558;-59
2023/04/19 02:22:47;;;;;;;28.73;20.87;;;;;;;;;;768142;184;922186;-60
2023/04/19 02:25:15;;;;;;;31.30;21.07;;;;;;;;;;753504;184;915359;-61
2023/04/19 02:27:39;;;;;;;30.83;23.30;;;;;;;;;;758345;183;919679;-59
2023/04/19 02:30:06;;;;;;;29.37;23.10;;;;;;;;;;764719;183;917413;-61
2023/04/19 02:32:32;;;;;;;30.53;22.10;;;;;;;;;;762284;182;919551;-61
2023/04/19 02:34:57;;;;;;;34.63;22.80;;;;;;;;;;765121;182;919282;-61
2023/04/19 02:37:23;;;;;;;33.50;23.10;;;;;;;;;;766744;182;918870;-61
2023/04/19 02:39:49;;;;;;;32.70;22.47;;;;;;;;;;765935;182;919270;-61
2023/04/19 02:42:15;;;;;;;32.30;23.13;;;;;;;;;;766627;182;919087;-61
2023/04/19 02:44:41;;;;;;;31.70;23.50;;;;;;;;;;767483;181;861787;-60
2023/04/19 02:47:07;;;;;;;32.70;23.60;;;;;;;;;;772225;182;919410;-59
2023/04/19 02:49:35;;;;;;;33.40;22.87;;;;;;;;;;762981;183;919658;-60
2023/04/19 02:51:58;;;;;;;30.40;22.87;;;;;;;;;;754110;183;1025091;-61
2023/04/19 02:54:24;;;;;;;39.20;25.45;;;;;;;;;;764128;183;848944;-61
2023/04/19 02:56:50;;;;;;;34.43;25.53;;;;;;;;;;755521;183;910036;-60
2023/04/19 02:59:16;;;;;;;36.80;25.60;;;;;;;;;;750253;185;921500;-61
2023/04/19 03:01:42;;;;;;;37.33;24.55;;;;;;;;;;762517;182;1021175;-60
2023/04/19 03:04:08;;;;;;;31.90;25.00;;;;;;;;;;761140;184;918800;-60
2023/04/19 03:06:35;;;;;;;36.30;25.37;;;;;;;;;;761010;182;919084;-61
2023/04/19 03:09:00;;;;;;;35.53;23.93;;;;;;;;;;763172;182;919919;-60
2023/04/19 03:11:26;;;;;;;42.00;25.00;;;;;;;;;;771728;182;919186;-60
2023/04/19 03:13:51;;;;;;;33.07;23.23;;;;;;;;;;762052;183;919565;-60
2023/04/19 03:16:17;;;;;;;35.30;25.37;;;;;;;;;;745671;187;920590;-61
2023/04/19 03:18:43;;;;;;;32.25;24.52;;;;;;;;;;756498;185;919552;-60
2023/04/19 03:21:09;;;;;;;41.17;23.53;;;;;;;;;;748707;186;815299;-60
2023/04/19 03:23:35;;;;;;;38.00;26.87;;;;;;;;;;756209;182;919426;-60
2023/04/19 03:26:01;;;;;;;33.27;24.73;;;;;;;;;;770808;182;918359;-60
2023/04/19 03:28:27;;;;;;;37.33;25.77;;;;;;;;;;752682;184;918328;-60
2023/04/19 03:30:52;;;;;;;37.30;25.83;;;;;;;;;;757855;181;918971;-61
2023/04/19 03:33:18;;;;;;;32.63;25.30;;;;;;;;;;769210;182;816803;-61
2023/04/19 03:35:44;;;;;;;40.90;24.30;;;;;;;;;;773378;181;919966;-61
2023/04/19 03:38:10;;;;;;;36.57;25.03;;;;;;;;;;760822;181;919341;-60
2023/04/19 03:40:36;;;;;;;36.20;24.40;;;;;;;;;;767876;182;939742;-60
2023/04/19 03:43:02;;;;;;;33.93;26.57;;;;;;;;;;772260;179;917059;-60
2023/04/19 03:45:28;;;;;;;35.73;25.20;;;;;;;;;;754809;183;917967;-61
2023/04/19 03:47:53;;;;;;;34.40;25.53;;;;;;;;;;766065;181;915906;-61
2023/04/19 03:50:19;;;;;;;33.93;25.00;;;;;;;;;;759392;182;917397;-61
2023/04/19 03:52:45;;;;;;;34.43;25.20;;;;;;;;;;765907;181;873928;-62
2023/04/19 03:55:12;;;;;;;29.85;23.05;;;;;;;;;;767573;181;921871;-60
2023/04/19 03:57:38;;;;;;;39.37;26.33;;;;;;;;;;751938;183;940915;-61
2023/04/19 04:00:07;;;;;;;35.13;25.43;;;;;;;;;;765090;182;918332;-59
2023/04/19 04:02:33;;;;;;;38.03;26.83;;;;;;;;;;766460;182;847709;-61
2023/04/19 04:04:58;;;;;;;42.00;29.40;;;;;;;;;;765108;182;819580;-60
2023/04/19 04:07:24;;;;;;;37.17;26.67;;;;;;;;;;764850;182;917953;-60
2023/04/19 04:09:50;;;;;;;38.77;26.60;;;;;;;;;;759167;182;920331;-60
2023/04/19 04:12:16;;;;;;;49.30;35.33;;;;;;;;;;759429;182;919310;-61
2023/04/19 04:14:42;;;;;;;40.80;31.00;;;;;;;;;;769935;181;920301;-61
2023/04/19 04:17:08;;;;;;;37.50;26.70;;;;;;;;;;767799;181;917278;-60
2023/04/19 04:19:34;;;;;;;38.10;26.50;;;;;;;;;;767196;182;922000;-61
2023/04/19 04:21:59;;;;;;;39.13;25.93;;;;;;;;;;757321;182;919290;-60
2023/04/19 04:24:26;;;;;;;37.23;25.23;;;;;;;;;;766959;182;932272;-60
2023/04/19 04:26:51;;;;;;;33.90;24.77;;;;;;;;;;763129;181;918316;-61
2023/04/19 04:29:17;;;;;;;36.63;24.73;;;;;;;;;;764035;182;859367;-60
2023/04/19 04:31:43;;;;;;;32.23;24.23;;;;;;;;;;762919;182;919195;-60
2023/04/19 04:34:09;;;;;;;42.13;27.60;;;;;;;;;;752857;182;918502;-60
2023/04/19 04:36:36;;;;;;;36.50;24.63;;;;;;;;;;759415;182;920265;-61
2023/04/19 04:39:00;;;;;;;32.90;24.00;;;;;;;;;;755740;183;920064;-61
2023/04/19 04:41:26;;;;;;;39.70;26.57;;;;;;;;;;762686;182;919687;-61
2023/04/19 04:43:52;;;;;;;31.30;24.60;;;;;;;;;;765632;182;918397;-60
2023/04/19 04:46:18;;;;;;;38.77;25.67;;;;;;;;;;764418;182;922406;-60
2023/04/19 04:48:44;;;;;;;39.63;22.20;;;;;;;;;;764966;181;917569;-60
2023/04/19 04:51:10;;;;;;;34.93;22.17;;;;;;;;;;764676;182;922155;-60
2023/04/19 04:53:35;;;;;;;43.33;27.23;;;;;;;;;;769967;182;620557;-60
2023/04/19 04:56:01;;;;;;;36.83;23.80;;;;;;;;;;759151;182;880995;-60
2023/04/19 04:58:27;;;;;;;41.80;27.13;;;;;;;;;;765211;182;907391;-60
2023/04/19 05:00:53;;;;;;;37.70;26.87;;;;;;;;;;762094;181;912748;-60
2023/04/19 05:03:19;;;;;;;40.80;23.27;;;;;;;;;;769327;179;917669;-61
2023/04/19 05:05:45;;;;;;;39.92;25.20;;;;;;;;;;749959;184;918772;-60
2023/04/19 05:08:10;;;;;;;33.97;20.33;;;;;;;;;;756631;182;922406;-62
2023/04/19 05:10:36;;;;;;;32.53;21.40;;;;;;;;;;765139;182;870277;-61
2023/04/19 05:13:02;;;;;;;32.73;20.87;;;;;;;;;;756140;183;918825;-62
2023/04/19 05:15:28;;;;;;;40.30;24.50;;;;;;;;;;745791;188;914226;-61
2023/04/19 05:17:54;;;;;;;22.00;14.65;;;;;;;;;;722520;191;918909;-61
2023/04/19 05:20:20;;;;;;;17.43;11.57;;;;;;;;;;769895;181;918560;-60
2023/04/19 05:22:46;;;;;;;12.37;8.23;;;;;;;;;;752561;185;917556;-61
2023/04/19 05:25:12;;;;;;;12.70;8.50;;;;;;;;;;754369;183;917187;-62
2023/04/19 05:27:38;;;;;;;7.77;5.00;;;;;;;;;;758827;182;919367;-61
2023/04/19 05:30:04;;;;;;;9.00;5.60;;;;;;;;;;761266;182;924127;-61
2023/04/19 05:32:30;;;;;;;8.10;3.83;;;;;;;;;;767449;181;915649;-61
2023/04/19 05:34:56;;;;;;;7.80;4.07;;;;;;;;;;768487;182;918648;-60
2023/04/19 05:37:23;;;;;;;7.70;4.33;;;;;;;;;;756275;180;921420;-59
2023/04/19 05:39:47;;;;;;;9.93;5.43;;;;;;;;;;757987;182;920511;-60
2023/04/19 05:42:13;;;;;;;9.13;5.50;;;;;;;;;;765130;182;918822;-61
2023/04/19 05:44:39;;;;;;;8.60;6.40;;;;;;;;;;767812;182;919054;-61
2023/04/19 05:47:05;;;;;;;9.50;5.93;;;;;;;;;;767369;182;918554;-61
2023/04/19 05:49:31;;;;;;;10.03;6.53;;;;;;;;;;762685;182;921394;-62
2023/04/19 05:51:56;;;;;;;9.93;5.97;;;;;;;;;;762651;182;919197;-64
2023/04/19 05:54:22;;;;;;;11.27;7.80;;;;;;;;;;763123;180;918377;-63
2023/04/19 05:56:48;;;;;;;12.50;6.50;;;;;;;;;;766007;182;917298;-62
2023/04/19 05:59:14;;;;;;;10.90;7.80;;;;;;;;;;764951;182;919524;-62
2023/04/19 06:01:40;;;;;;;12.40;7.77;;;;;;;;;;755101;181;920130;-62
2023/04/19 06:04:06;;;;;;;6.67;5.37;;;;;;;;;;765471;182;924097;-63
2023/04/19 06:06:31;;;;;;;8.32;6.82;;;;;;;;;;765886;182;878370;-64
2023/04/19 06:08:57;;;;;;;16.03;9.40;;;;;;;;;;769533;182;886166;-63
2023/04/19 06:11:23;;;;;;;9.23;6.70;;;;;;;;;;764417;182;919122;-62
2023/04/19 06:13:50;;;;;;;14.07;8.57;;;;;;;;;;767512;179;862119;-64
2023/04/19 06:16:15;;;;;;;12.63;8.37;;;;;;;;;;769809;181;886292;-62
2023/04/19 06:18:42;;;;;;;12.13;7.13;;;;;;;;;;769028;181;919424;-62
2023/04/19 06:21:07;;;;;;;8.77;6.43;;;;;;;;;;766032;181;919461;-62
2023/04/19 06:23:32;;;;;;;12.50;7.60;;;;;;;;;;770333;182;916576;-65
2023/04/19 06:25:58;;;;;;;8.67;6.70;;;;;;;;;;755218;184;919885;-62
2023/04/19 06:28:24;;;;;;;11.70;7.50;;;;;;;;;;749770;182;918650;-64
2023/04/19 06:30:50;;;;;;;12.97;8.47;;;;;;;;;;757988;183;916813;-64
2023/04/19 06:33:16;;;;;;;9.87;7.27;;;;;;;;;;758237;183;931540;-64
2023/04/19 06:35:42;;;;;;;14.50;7.80;;;;;;;;;;760314;182;919444;-61
2023/04/19 06:38:08;;;;;;;13.03;8.60;;;;;;;;;;761821;182;918858;-63
2023/04/19 06:40:34;;;;;;;11.63;8.23;;;;;;;;;;763715;182;919530;-61
2023/04/19 06:42:59;;;;;;;9.10;6.80;;;;;;;;;;765154;183;854677;-64
2023/04/19 06:45:25;;;;;;;14.53;8.77;;;;;;;;;;765367;182;1020695;-63
2023/04/19 06:47:51;;;;;;;12.20;7.80;;;;;;;;;;768819;182;919676;-63
2023/04/19 06:50:17;;;;;;;12.60;8.13;;;;;;;;;;759227;184;922377;-64
2023/04/19 06:52:43;;;;;;;11.93;9.10;;;;;;;;;;756791;182;919442;-61
2023/04/19 06:55:08;;;;;;;10.90;6.47;;;;;;;;;;769940;182;921267;-62
2023/04/19 06:57:34;;;;;;;11.90;7.77;;;;;;;;;;761847;182;871367;-62
2023/04/19 07:00:00;;;;;;;11.23;8.27;;;;;;;;;;762953;184;816719;-62
2023/04/19 07:02:26;;;;;;;10.60;7.10;;;;;;;;;;764165;182;919939;-62
2023/04/19 07:04:52;;;;;;;9.20;6.27;;;;;;;;;;778262;180;919306;-61
2023/04/19 07:07:18;;;;;;;15.13;9.90;;;;;;;;;;772145;181;867979;-62
2023/04/19 07:09:44;;;;;;;18.90;10.50;;;;;;;;;;765749;180;816872;-61
2023/04/19 07:12:09;;;;;;;15.77;11.57;;;;;;;;;;769388;182;809740;-61
2023/04/19 07:14:35;;;;;;;13.83;10.20;;;;;;;;;;767152;181;919276;-60
2023/04/19 07:17:01;;;;;;;18.07;11.27;;;;;;;;;;765746;181;920916;-62
2023/04/19 07:19:27;;;;;;;17.25;10.50;;;;;;;;;;770769;182;897019;-61
2023/04/19 07:21:53;;;;;;;18.83;9.50;;;;;;;;;;767123;180;917456;-62
2023/04/19 07:24:19;;;;;;;19.13;11.40;;;;;;;;;;756621;183;918658;-62
2023/04/19 07:26:44;;;;;;;12.60;7.87;;;;;;;;;;756677;182;919060;-63
2023/04/19 07:29:10;;;;;;;13.20;7.73;;;;;;;;;;766754;182;919455;-62
2023/04/19 07:31:36;;;;;;;17.13;8.87;;;;;;;;;;767354;182;919667;-63
2023/04/19 07:34:02;;;;;;;15.73;10.38;;;;;;;;;;759973;181;949028;-63
2023/04/19 07:36:28;;;;;;;15.03;8.83;;;;;;;;;;766587;183;899073;-63
2023/04/19 07:38:54;;;;;;;15.30;9.23;;;;;;;;;;766152;181;917900;-64
2023/04/19 07:41:20;;;;;;;14.23;10.23;;;;;;;;;;761000;181;1021009;-63
2023/04/19 07:43:45;;;;;;;16.40;11.57;;;;;;;;;;768031;182;918291;-63
2023/04/19 07:46:11;;;;;;;19.67;11.87;;;;;;;;;;763394;183;918277;-63
2023/04/19 07:48:37;;;;;;;18.57;9.30;;;;;;;;;;763992;183;884778;-63
2023/04/19 07:51:07;;;;;;;18.50;13.40;;;;;;;;;;764466;181;918958;-63
2023/04/19 07:53:32;;;;;;;19.23;13.40;;;;;;;;;;758909;182;919260;-63
2023/04/19 07:55:58;;;;;;;14.30;11.63;;;;;;;;;;766503;182;916050;-64
2023/04/19 07:58:25;;;;;;;18.80;10.73;;;;;;;;;;754602;182;921331;-63
2023/04/19 08:00:50;;;;;;;14.97;11.00;;;;;;;;;;761824;182;917800;-62
2023/04/19 08:03:16;;;;;;;18.37;11.50;;;;;;;;;;765501;182;918906;-62
2023/04/19 08:05:42;;;;;;;13.97;9.33;;;;;;;;;;751445;184;919057;-63
2023/04/19 08:08:07;;;;;;;12.93;7.80;;;;;;;;;;770772;182;814270;-61
2023/04/19 08:10:34;;;;;;;14.70;8.70;;;;;;;;;;751813;182;919461;-64
2023/04/19 08:12:59;;;;;;;9.30;5.60;;;;;;;;;;765996;181;917199;-62
2023/04/19 08:15:25;;;;;;;10.50;6.50;;;;;;;;;;767815;181;918313;-61
2023/04/19 08:17:51;;;;;;;14.77;7.93;;;;;;;;;;768850;182;918199;-63
2023/04/19 08:20:17;;;;;;;10.43;7.10;;;;;;;;;;769366;182;919003;-62
2023/04/19 08:22:43;;;;;;;9.47;6.77;;;;;;;;;;768645;181;1009027;-61
2023/04/19 08:25:09;;;;;;;11.00;7.63;;;;;;;;;;767327;182;949935;-62
2023/04/19 08:27:35;;;;;;;10.90;6.43;;;;;;;;;;754200;183;919988;-63
2023/04/19 08:30:00;;;;;;;7.47;5.57;;;;;;;;;;751821;183;1022065;-61
2023/04/19 08:32:26;;;;;;;8.15;5.50;;;;;;;;;;766668;183;1018971;-63
2023/04/19 08:34:52;;;;;;;8.57;4.47;;;;;;;;;;762785;183;910495;-61
2023/04/19 08:37:18;;;;;;;11.70;8.10;;;;;;;;;;766064;181;921592;-63
2023/04/19 08:39:44;;;;;;;9.40;6.73;;;;;;;;;;759686;182;854829;-62
2023/04/19 08:42:10;;;;;;;12.53;7.17;;;;;;;;;;758103;184;854876;-64
2023/04/19 08:44:38;;;;;;;5.10;3.50;;;;;;;;;;759032;182;919388;-61
2023/04/19 08:47:04;;;;;;;8.30;4.50;;;;;;;;;;769071;181;919444;-63
2023/04/19 08:49:30;;;;;;;12.70;8.97;;;;;;;;;;766379;182;918624;-61
2023/04/19 08:51:56;;;;;;;8.87;5.07;;;;;;;;;;763392;184;817207;-61
2023/04/19 08:54:22;;;;;;;9.53;6.03;;;;;;;;;;769869;182;625546;-61
2023/04/19 08:56:48;;;;;;;11.33;7.03;;;;;;;;;;775343;182;624558;-61
2023/04/19 08:59:14;;;;;;;7.33;5.17;;;;;;;;;;769819;182;621713;-61
2023/04/19 09:01:40;;;;;;;9.90;6.60;;;;;;;;;;766005;181;639643;-63
2023/04/19 09:04:06;;;;;;;7.67;5.53;;;;;;;;;;764021;183;919940;-61
2023/04/19 09:06:35;;;;;;;12.40;8.97;;;;;;;;;;767351;181;920497;-62
2023/04/19 09:09:06;;;;;;;15.50;10.17;;;;;;;;;;759929;182;919760;-60
2023/04/19 09:11:37;;;;;;;12.17;8.77;;;;;;;;;;754943;185;619557;-62
2023/04/19 09:14:06;;;;;;;10.33;6.43;;;;;;;;;;753781;183;874680;-63
2023/04/19 09:16:32;;;;;;;9.80;6.87;;;;;;;;;;767050;183;907375;-60
2023/04/19 09:19:00;;;;;;;8.50;4.37;;;;;;;;;;759572;181;917412;-61
2023/04/19 09:21:27;;;;;;;10.47;7.23;;;;;;;;;;766187;182;916630;-60
2023/04/19 09:23:52;;;;;;;12.23;7.40;;;;;;;;;;769009;182;919201;-60
2023/04/19 09:26:18;;;;;;;9.90;6.18;;;;;;;;;;760650;182;921085;-60
2023/04/19 09:29:00;;;;;;;6.80;4.87;;;;;;;;;;749845;181;924910;-62
2023/04/19 09:31:25;;;;;;;8.40;6.80;;;;;;;;;;757454;183;922886;-61
2023/04/19 09:33:53;;;;;;;7.90;4.30;;;;;;;;;;756375;183;919499;-62
2023/04/19 09:36:22;;;;;;;7.03;3.37;;;;;;;;;;757493;186;817209;-63
2023/04/19 09:38:48;;;;;;;4.30;3.13;;;;;;;;;;752146;182;918816;-63
2023/04/19 09:41:14;;;;;;;6.70;4.50;;;;;;;;;;768792;182;917948;-61
2023/04/19 09:43:40;;;;;;;4.50;3.10;;;;;;;;;;774379;182;866478;-62
2023/04/19 09:46:06;;;;;;;6.40;4.23;;;;;;;;;;768758;182;917075;-61
2023/04/19 09:48:32;;;;;;;7.13;4.03;;;;;;;;;;767252;182;916916;-61
2023/04/19 09:50:57;;;;;;;6.30;4.63;;;;;;;;;;750895;185;918728;-62
2023/04/19 09:53:23;;;;;;;8.20;4.90;;;;;;;;;;754212;184;919345;-60
2023/04/19 09:55:49;;;;;;;6.63;4.60;;;;;;;;;;765994;182;919368;-62
2023/04/19 09:58:15;;;;;;;5.43;3.43;;;;;;;;;;764801;182;919283;-61
2023/04/19 10:00:41;;;;;;;9.23;3.83;;;;;;;;;;770452;183;918246;-62
2023/04/19 10:03:07;;;;;;;4.30;2.60;;;;;;;;;;760985;183;919304;-61
2023/04/19 10:05:32;;;;;;;3.43;2.40;;;;;;;;;;762473;182;919305;-61
2023/04/19 10:08:00;;;;;;;5.00;3.33;;;;;;;;;;767391;184;919323;-61
2023/04/19 10:10:24;;;;;;;3.37;2.23;;;;;;;;;;766058;181;919709;-62
2023/04/19 10:12:50;;;;;;;3.57;2.73;;;;;;;;;;765932;182;1020890;-62
2023/04/19 10:15:16;;;;;;;4.93;3.47;;;;;;;;;;768884;182;919068;-61
2023/04/19 10:17:42;;;;;;;4.20;3.00;;;;;;;;;;763987;184;819759;-61
2023/04/19 10:20:09;;;;;;;3.87;2.50;;;;;;;;;;758038;182;913073;-62
2023/04/19 10:22:36;;;;;;;3.70;2.27;;;;;;;;;;763506;181;825281;-61
2023/04/19 10:25:16;;;;;;;5.95;3.05;;;;;;;;;;765475;182;904851;-60
2023/04/19 10:27:47;;;;;;;7.00;3.67;;;;;;;;;;770782;182;867589;-60
2023/04/19 10:30:12;;;;;;;7.00;4.80;;;;;;;;;;761282;182;921390;-61
2023/04/19 10:32:39;;;;;;;8.17;5.37;;;;;;;;;;766502;182;919610;-61
2023/04/19 10:35:08;;;;;;;7.63;4.37;;;;;;;;;;772481;182;921231;-61
2023/04/19 10:37:34;;;;;;;3.70;3.17;;;;;;;;;;763526;182;920072;-61
2023/04/19 10:39:59;;;;;;;4.23;3.27;;;;;;;;;;755300;184;816671;-61
2023/04/19 10:42:25;;;;;;;4.93;3.20;;;;;;;;;;755600;184;918579;-62
2023/04/19 10:44:57;;;;;;;5.83;3.10;;;;;;;;;;762067;183;916894;-62
2023/04/19 10:47:29;;;;;;;3.78;2.33;;;;;;;;;;767737;180;917122;-61
2023/04/19 10:49:55;;;;;;;5.20;3.27;;;;;;;;;;754126;183;919124;-60
2023/04/19 10:52:26;;;;;;;4.37;2.77;;;;;;;;;;753699;182;919824;-62
2023/04/19 10:54:51;;;;;;;3.17;2.13;;;;;;;;;;755959;183;918576;-61
2023/04/19 10:57:17;;;;;;;4.50;3.30;;;;;;;;;;761987;182;923214;-61
2023/04/19 10:59:43;;;;;;;7.07;3.30;;;;;;;;;;768342;181;919068;-62
2023/04/19 11:02:15;;;;;;;5.60;4.10;;;;;;;;;;770162;181;917594;-62
2023/04/19 11:04:47;;;;;;;5.50;4.07;;;;;;;;;;768727;181;919650;-61
2023/04/19 11:07:13;;;;;;;6.90;4.20;;;;;;;;;;766802;182;891329;-62
2023/04/19 11:09:41;;;;;;;8.70;4.50;;;;;;;;;;765399;182;920831;-62
2023/04/19 11:12:08;;;;;;;5.83;3.50;;;;;;;;;;764566;181;920738;-61
2023/04/19 11:14:34;;;;;;;8.63;4.77;;;;;;;;;;763701;181;917168;-62
2023/04/19 11:17:00;;;;;;;8.17;5.60;;;;;;;;;;757249;180;928676;-62
2023/04/19 11:19:26;;;;;;;7.23;5.10;;;;;;;;;;750690;185;916915;-62
2023/04/19 11:21:51;;;;;;;10.43;7.90;;;;;;;;;;763578;182;913868;-62
2023/04/19 11:24:18;;;;;;;12.13;7.00;;;;;;;;;;763325;183;921757;-62
2023/04/19 11:26:43;;;;;;;16.58;10.65;;;;;;;;;;767607;182;933026;-61
2023/04/19 11:29:09;;;;;;;10.40;5.30;;;;;;;;;;771036;181;922749;-62
2023/04/19 11:31:35;;;;;;;15.70;8.23;;;;;;;;;;761651;183;1125645;-61
2023/04/19 11:34:02;;;;;;;17.20;7.37;;;;;;;;;;762546;182;1125534;-62
2023/04/19 11:36:27;;;;;;;18.00;8.90;;;;;;;;;;768254;181;919108;-62
2023/04/19 11:38:53;;;;;;;8.88;5.53;;;;;;;;;;771374;182;1022564;-62
2023/04/19 11:41:19;;;;;;;5.00;3.63;;;;;;;;;;764956;182;919824;-61
2023/04/19 11:43:45;;;;;;;8.10;4.40;;;;;;;;;;763206;183;822532;-62
2023/04/19 11:46:11;;;;;;;7.10;4.17;;;;;;;;;;765709;182;818303;-61
2023/04/19 11:48:37;;;;;;;6.80;4.60;;;;;;;;;;750901;185;919737;-60
2023/04/19 11:51:03;;;;;;;6.47;4.63;;;;;;;;;;763728;179;820230;-61
2023/04/19 11:53:29;;;;;;;5.50;3.80;;;;;;;;;;770387;182;919208;-61
2023/04/19 11:55:55;;;;;;;6.07;4.00;;;;;;;;;;765007;182;919319;-61
2023/04/19 11:58:27;;;;;;;6.00;3.57;;;;;;;;;;767872;181;917019;-61
2023/04/19 12:00:51;;;;;;;7.57;5.32;;;;;;;;;;767775;182;909853;-61
2023/04/19 12:03:20;;;;;;;6.50;4.43;;;;;;;;;;772392;182;919075;-61
2023/04/19 12:05:52;;;;;;;6.50;4.30;;;;;;;;;;767506;182;919168;-60
2023/04/19 12:08:17;;;;;;;4.30;3.20;;;;;;;;;;755217;182;919053;-61
2023/04/19 12:10:49;;;;;;;7.75;4.68;;;;;;;;;;747284;184;918802;-61
2023/04/19 12:13:16;;;;;;;6.30;5.43;;;;;;;;;;758090;184;918746;-62
2023/04/19 12:15:42;;;;;;;5.00;3.50;;;;;;;;;;760941;182;920974;-61
2023/04/19 12:18:07;;;;;;;5.30;3.73;;;;;;;;;;763198;182;919797;-61
2023/04/19 12:20:33;;;;;;;7.77;5.33;;;;;;;;;;763059;182;921310;-61
2023/04/19 12:22:59;;;;;;;6.60;5.40;;;;;;;;;;767236;181;919195;-61
2023/04/19 12:25:29;;;;;;;11.70;7.70;;;;;;;;;;757274;182;919377;-61
2023/04/19 12:27:55;;;;;;;15.73;10.60;;;;;;;;;;762630;182;918943;-61
2023/04/19 12:30:21;;;;;;;7.20;5.30;;;;;;;;;;765387;182;820757;-61
2023/04/19 12:32:46;;;;;;;11.80;9.67;;;;;;;;;;767383;182;917867;-61
2023/04/19 12:35:12;;;;;;;8.30;7.03;;;;;;;;;;762958;182;871678;-61
2023/04/19 12:37:38;;;;;;;11.77;8.17;;;;;;;;;;772421;182;815403;-61
2023/04/19 12:40:04;;;;;;;11.50;9.13;;;;;;;;;;765702;181;920752;-61
2023/04/19 12:42:30;;;;;;;9.10;7.33;;;;;;;;;;761272;183;917408;-60
2023/04/19 12:44:56;;;;;;;11.73;8.83;;;;;;;;;;764517;182;913448;-61
2023/04/19 12:47:22;;;;;;;11.13;7.90;;;;;;;;;;759942;182;852159;-61
2023/04/19 12:49:48;;;;;;;9.27;6.72;;;;;;;;;;768962;182;919055;-61
2023/04/19 12:52:14;;;;;;;12.90;8.67;;;;;;;;;;768674;181;918971;-61
2023/04/19 12:54:40;;;;;;;14.60;9.77;;;;;;;;;;765878;182;916325;-61
2023/04/19 12:57:05;;;;;;;16.80;12.20;;;;;;;;;;763068;183;919071;-61
2023/04/19 12:59:31;;;;;;;12.47;9.20;;;;;;;;;;759175;183;918022;-61
2023/04/19 13:01:57;;;;;;;16.80;8.60;;;;;;;;;;757030;184;918601;-63
2023/04/19 13:04:23;;;;;;;11.50;6.17;;;;;;;;;;757530;182;919007;-62
2023/04/19 13:06:49;;;;;;;12.73;7.67;;;;;;;;;;769149;181;831486;-62
2023/04/19 13:09:15;;;;;;;14.63;9.37;;;;;;;;;;762469;180;921020;-61
2023/04/19 13:11:40;;;;;;;8.43;6.90;;;;;;;;;;768148;182;921653;-60
2023/04/19 13:14:06;;;;;;;13.13;7.27;;;;;;;;;;755659;182;920568;-61
2023/04/19 13:16:32;;;;;;;16.20;8.37;;;;;;;;;;759835;182;941059;-62
2023/04/19 13:18:58;;;;;;;12.37;8.57;;;;;;;;;;772052;181;917371;-62
2023/04/19 13:21:24;;;;;;;9.57;5.87;;;;;;;;;;760033;182;920206;-62
2023/04/19 13:23:50;;;;;;;11.87;8.40;;;;;;;;;;767160;181;920239;-62
2023/04/19 13:26:15;;;;;;;9.90;8.40;;;;;;;;;;767981;182;919405;-61
2023/04/19 13:28:42;;;;;;;9.63;6.30;;;;;;;;;;762544;182;921270;-62
2023/04/19 13:31:08;;;;;;;9.90;7.57;;;;;;;;;;756850;182;916511;-61
2023/04/19 13:33:33;;;;;;;12.13;6.43;;;;;;;;;;768047;182;931068;-61
2023/04/19 13:35:59;;;;;;;11.27;8.60;;;;;;;;;;759392;181;922053;-62
2023/04/19 13:38:25;;;;;;;13.00;8.10;;;;;;;;;;754931;184;915481;-61
2023/04/19 13:40:51;;;;;;;8.90;5.77;;;;;;;;;;762445;182;916480;-61
2023/04/19 13:43:17;;;;;;;9.07;6.60;;;;;;;;;;770880;182;910198;-61
2023/04/19 13:45:43;;;;;;;19.93;11.67;;;;;;;;;;766875;181;918276;-62
2023/04/19 13:48:09;;;;;;;12.97;9.13;;;;;;;;;;766604;182;922149;-62
2023/04/19 13:50:34;;;;;;;14.27;11.57;;;;;;;;;;767975;182;922657;-60
2023/04/19 13:53:00;;;;;;;13.33;9.97;;;;;;;;;;752869;184;920241;-61
2023/04/19 13:55:26;;;;;;;10.68;7.97;;;;;;;;;;756509;182;920866;-61
2023/04/19 13:57:52;;;;;;;10.57;7.77;;;;;;;;;;771395;181;944574;-61
2023/04/19 14:00:18;;;;;;;12.70;6.97;;;;;;;;;;759631;183;918984;-61
2023/04/19 14:02:44;;;;;;;23.10;9.83;;;;;;;;;;758961;183;920037;-61
2023/04/19 14:05:10;;;;;;;25.97;12.20;;;;;;;;;;749915;184;915793;-61
2023/04/19 14:07:39;;;;;;;15.18;9.43;;;;;;;;;;766718;182;919339;-61
2023/04/19 14:10:06;;;;;;;8.83;6.00;;;;;;;;;;751807;184;920560;-61